createdAt,value
2023-03-05T00:02:07.037Z,4.65
2023-03-05T00:05:39.397Z,7.27
2023-03-05T00:09:11.190Z,5.75
2023-03-05T00:12:43.480Z,10.77
2023-03-05T00:16:16.281Z,5.57
2023-03-05T00:19:48.499Z,8.90
2023-03-05T00:23:20.831Z,6.72
2023-03-05T00:26:53.196Z,8.93
2023-03-05T00:30:25.566Z,6.43
2023-03-05T00:34:02.346Z,11.65
2023-03-05T00:37:34.630Z,10.10
2023-03-05T00:41:08.962Z,8.40
2023-03-05T00:44:41.261Z,9.65
2023-03-05T00:48:13.511Z,5.60
2023-03-05T00:51:45.352Z,7.17
2023-03-05T00:55:18.094Z,11.57
2023-03-05T00:58:50.507Z,11.43
2023-03-05T01:02:22.503Z,7.75
2023-03-05T01:05:54.362Z,7.20
2023-03-05T01:09:26.597Z,8.20
2023-03-05T01:12:58.714Z,4.43
2023-03-05T01:16:30.665Z,3.30
2023-03-05T01:20:03.066Z,5.93
2023-03-05T01:23:37.535Z,4.63
2023-03-05T01:27:09.706Z,4.90
2023-03-05T01:30:41.447Z,4.93
2023-03-05T01:34:13.891Z,4.88
2023-03-05T01:37:46.028Z,2.75
2023-03-05T01:41:19.572Z,4.03
2023-03-05T01:45:11.440Z,3.58
2023-03-05T01:48:47.661Z,6.03
2023-03-05T01:52:23.058Z,6.73
2023-03-05T01:55:56.315Z,5.10
2023-03-05T01:59:28.457Z,6.85
2023-03-05T02:03:05.165Z,9.77
2023-03-05T02:06:38.905Z,5.55
2023-03-05T02:10:23.469Z,5.72
2023-03-05T02:13:56.325Z,9.32
2023-03-05T02:17:28.909Z,5.33
2023-03-05T02:21:10.829Z,5.97
2023-03-05T02:24:42.886Z,3.45
2023-03-05T02:28:28.412Z,5.00
2023-03-05T02:32:01.408Z,5.95
2023-03-05T02:35:33.561Z,4.43
2023-03-05T02:39:06.610Z,4.97
2023-03-05T02:42:39.028Z,8.63
2023-03-05T02:46:11.525Z,9.30
2023-03-05T02:49:43.628Z,8.75
2023-03-05T02:53:15.507Z,8.80
2023-03-05T02:56:47.586Z,8.43
2023-03-05T03:00:19.883Z,6.40
2023-03-05T03:03:51.663Z,8.43
2023-03-05T03:07:23.877Z,9.00
2023-03-05T03:10:56.519Z,9.50
2023-03-05T03:14:31.898Z,5.47
2023-03-05T03:18:03.969Z,9.10
2023-03-05T03:21:36.209Z,7.18
2023-03-05T03:25:08.566Z,8.45
2023-03-05T03:28:40.967Z,6.37
2023-03-05T03:32:15.365Z,8.45
2023-03-05T03:35:47.756Z,5.13
2023-03-05T03:39:20.988Z,5.57
2023-03-05T03:42:53.561Z,6.53
2023-03-05T03:46:25.326Z,5.20
2023-03-05T03:49:59.152Z,5.73
2023-03-05T03:53:31.158Z,8.73
2023-03-05T03:57:03.739Z,8.18
2023-03-05T04:00:38.763Z,7.90
2023-03-05T04:04:12.906Z,6.33
2023-03-05T04:07:45.392Z,6.45
2023-03-05T04:11:19.399Z,5.63
2023-03-05T04:14:51.474Z,13.80
2023-03-05T04:18:23.686Z,7.03
2023-03-05T04:21:55.457Z,8.73
2023-03-05T04:25:27.856Z,6.50
2023-03-05T04:28:59.618Z,4.63
2023-03-05T04:32:31.985Z,6.97
2023-03-05T04:36:04.042Z,8.00
2023-03-05T04:39:36.238Z,9.93
2023-03-05T04:43:08.365Z,6.43
2023-03-05T04:46:40.806Z,4.40
2023-03-05T04:50:13.440Z,8.93
2023-03-05T04:53:45.597Z,6.57
2023-03-05T04:57:18.173Z,6.95
2023-03-05T05:00:50.969Z,8.43
2023-03-05T05:04:23.700Z,4.97
2023-03-05T05:07:58.076Z,4.60
2023-03-05T05:11:30.346Z,11.07
2023-03-05T05:15:04.052Z,5.20
2023-03-05T05:18:36.245Z,5.50
2023-03-05T05:22:08.431Z,6.35
2023-03-05T05:25:40.384Z,6.53
2023-03-05T05:29:14.871Z,4.05
2023-03-05T05:32:46.605Z,7.75
2023-03-05T05:36:19.564Z,5.20
2023-03-05T05:39:53.935Z,8.23
2023-03-05T05:43:34.546Z,5.97
2023-03-05T05:47:31.166Z,4.20
2023-03-05T05:51:11.648Z,7.00
2023-03-05T05:54:43.431Z,7.88
2023-03-05T05:58:15.658Z,6.07
2023-03-05T06:01:48.626Z,8.13
2023-03-05T06:05:20.995Z,7.18
2023-03-05T06:08:53.608Z,8.95
2023-03-05T06:12:25.689Z,3.13
2023-03-05T06:16:00.117Z,5.47
2023-03-05T06:19:32.823Z,7.70
2023-03-05T06:23:05.166Z,1.52
2023-03-05T06:26:39.982Z,3.50
2023-03-05T06:30:12.801Z,4.90
2023-03-05T06:33:45.083Z,3.08
2023-03-05T06:37:17.476Z,2.57
2023-03-05T06:40:50.037Z,1.95
2023-03-05T06:44:22.090Z,3.30
2023-03-05T06:47:54.286Z,3.93
2023-03-05T06:51:29.078Z,3.05
2023-03-05T06:55:01.120Z,1.73
2023-03-05T06:58:33.497Z,3.00
2023-03-05T07:02:05.389Z,4.23
2023-03-05T07:05:44.311Z,3.55
2023-03-05T07:09:16.882Z,3.67
2023-03-05T07:12:49.205Z,2.33
2023-03-05T07:16:28.885Z,2.70
2023-03-05T07:20:01.283Z,2.85
2023-03-05T07:23:35.529Z,3.17
2023-03-05T07:27:07.588Z,5.05
2023-03-05T07:30:39.649Z,4.30
2023-03-05T07:34:11.472Z,2.60
2023-03-05T07:37:43.937Z,3.87
2023-03-05T07:41:21.110Z,4.97
2023-03-05T07:44:53.558Z,2.80
2023-03-05T07:48:25.928Z,3.83
2023-03-05T07:51:57.731Z,8.20
2023-03-05T07:55:30.465Z,7.60
2023-03-05T07:59:07.816Z,4.20
2023-03-05T08:02:40.172Z,6.18
2023-03-05T08:06:12.534Z,4.47
2023-03-05T08:09:44.795Z,5.63
2023-03-05T08:13:16.843Z,6.77
2023-03-05T08:16:52.213Z,5.57
2023-03-05T08:20:24.763Z,6.25
2023-03-05T08:23:58.253Z,6.27
2023-03-05T08:27:30.361Z,6.60
2023-03-05T08:31:02.574Z,4.22
2023-03-05T08:34:34.478Z,2.70
2023-03-05T08:38:06.633Z,9.80
2023-03-05T08:41:38.707Z,3.95
2023-03-05T08:45:12.923Z,6.68
2023-03-05T08:48:45.882Z,1.13
2023-03-05T08:52:17.869Z,3.20
2023-03-05T08:55:58.395Z,3.88
2023-03-05T08:59:36.867Z,3.90
2023-03-05T09:03:09.247Z,4.75
2023-03-05T09:06:41.778Z,5.25
2023-03-05T09:10:14.846Z,4.80
2023-03-05T09:13:46.705Z,2.58
2023-03-05T09:17:19.578Z,2.80
2023-03-05T09:20:51.591Z,5.85
2023-03-05T09:24:23.896Z,4.80
2023-03-05T09:27:56.329Z,2.53
2023-03-05T09:31:28.364Z,4.57
2023-03-05T09:35:00.547Z,4.97
2023-03-05T09:38:32.816Z,2.50
2023-03-05T09:42:23.626Z,4.40
2023-03-05T09:46:15.099Z,1.97
2023-03-05T09:50:03.872Z,7.18
2023-03-05T09:53:43.150Z,2.08
2023-03-05T09:57:41.065Z,5.57
2023-03-05T10:01:20.988Z,8.43
2023-03-05T10:04:59.960Z,5.07
2023-03-05T10:09:02.712Z,5.50
2023-03-05T10:12:44.135Z,3.50
2023-03-05T10:16:33.006Z,4.90
2023-03-05T10:20:25.283Z,4.47
2023-03-05T10:24:31.415Z,4.60
2023-03-05T10:28:29.906Z,9.13
2023-03-05T10:32:39.393Z,4.80
2023-03-05T10:37:03.889Z,5.85
2023-03-05T10:40:45.296Z,4.47
2023-03-05T10:44:37.965Z,2.97
2023-03-05T10:48:33.973Z,1.73
2023-03-05T10:52:13.477Z,4.93
2023-03-05T10:55:45.625Z,4.32
2023-03-05T10:59:17.660Z,5.93
2023-03-05T11:02:58.512Z,3.00
2023-03-05T11:06:35.625Z,5.68
2023-03-05T11:10:16.963Z,5.47
2023-03-05T11:14:00.418Z,6.07
2023-03-05T11:17:38.766Z,5.33
2023-03-05T11:21:27.521Z,8.32
2023-03-05T11:25:14.001Z,5.25
2023-03-05T11:28:52.728Z,7.50
2023-03-05T11:32:28.923Z,4.18
2023-03-05T11:36:22.063Z,5.85
2023-03-05T11:40:10.762Z,4.67
2023-03-05T11:43:45.902Z,6.43
2023-03-05T11:47:28.930Z,6.30
2023-03-05T11:51:05.842Z,4.57
2023-03-05T11:54:56.663Z,4.70
2023-03-05T11:58:51.459Z,4.55
2023-03-05T12:02:29.257Z,6.47
2023-03-05T12:06:14.208Z,3.13
2023-03-05T12:09:49.548Z,3.35
2023-03-05T12:13:35.202Z,5.03
2023-03-05T12:17:23.597Z,8.00
2023-03-05T12:21:19.770Z,3.88
2023-03-05T12:24:52.964Z,6.47
2023-03-05T12:28:37.387Z,4.53
2023-03-05T12:32:35.822Z,5.50
2023-03-05T12:36:23.239Z,3.17
2023-03-05T12:40:13.411Z,3.55
2023-03-05T12:44:08.750Z,3.50
2023-03-05T12:47:45.139Z,6.90
2023-03-05T12:51:33.313Z,3.70
2023-03-05T12:55:29.790Z,3.37
2023-03-05T12:59:04.282Z,3.90
2023-03-05T13:02:40.872Z,4.07
2023-03-05T13:06:42.486Z,5.63
2023-03-05T13:10:27.715Z,7.93
2023-03-05T13:14:05.003Z,3.53
2023-03-05T13:17:39.145Z,3.90
2023-03-05T13:21:19.405Z,4.67
2023-03-05T13:25:23.020Z,5.93
2023-03-05T13:29:17.876Z,6.13
2023-03-05T13:32:53.058Z,3.37
2023-03-05T13:36:26.988Z,3.80
2023-03-05T13:40:15.677Z,5.53
2023-03-05T13:43:52.477Z,7.40
2023-03-05T13:47:30.610Z,3.67
2023-03-05T13:51:08.489Z,6.32
2023-03-05T13:54:40.313Z,7.85
2023-03-05T13:58:47.320Z,7.63
2023-03-05T14:02:20.833Z,7.05
2023-03-05T14:05:54.095Z,7.53
2023-03-05T14:09:46.576Z,11.33
2023-03-05T14:13:21.895Z,30.23
2023-03-05T14:16:56.273Z,9.60
2023-03-05T14:20:29.785Z,9.80
2023-03-05T14:24:13.467Z,7.37
2023-03-05T14:27:47.588Z,5.88
2023-03-05T14:31:24.783Z,4.45
2023-03-05T14:34:59.582Z,6.70
2023-03-05T14:38:34.255Z,4.15
2023-03-05T14:42:21.222Z,3.55
2023-03-05T14:45:54.066Z,3.97
2023-03-05T14:49:26.077Z,2.08
2023-03-05T14:53:06.757Z,3.50
2023-03-05T14:56:39.086Z,3.75
2023-03-05T15:00:18.404Z,3.70
2023-03-05T15:03:51.011Z,3.17
2023-03-05T15:07:29.234Z,3.63
2023-03-05T15:11:09.977Z,3.03
2023-03-05T15:14:45.375Z,4.05
2023-03-05T15:18:20.129Z,2.65
2023-03-05T15:21:52.284Z,5.47
2023-03-05T15:25:29.045Z,5.63
2023-03-05T15:29:01.701Z,6.28
2023-03-05T15:32:34.001Z,5.90
2023-03-05T15:36:06.255Z,4.00
2023-03-05T15:39:38.734Z,6.93
2023-03-05T15:43:11.038Z,6.25
2023-03-05T15:46:44.537Z,10.80
2023-03-05T15:50:16.753Z,4.95
2023-03-05T15:53:48.919Z,4.22
2023-03-05T15:57:23.971Z,23.13
2023-03-05T16:00:56.053Z,8.85
2023-03-05T16:04:29.620Z,4.38
2023-03-05T16:08:01.992Z,8.23
2023-03-05T16:11:37.393Z,7.57
2023-03-05T16:15:16.668Z,6.68
2023-03-05T16:18:48.807Z,5.88
2023-03-05T16:22:21.195Z,9.67
2023-03-05T16:25:53.314Z,11.15
2023-03-05T16:29:30.890Z,10.13
2023-03-05T16:33:02.686Z,6.30
2023-03-05T16:36:35.925Z,7.93
2023-03-05T16:40:10.143Z,11.35
2023-03-05T16:43:44.012Z,7.70
2023-03-05T16:47:16.467Z,6.33
2023-03-05T16:50:48.963Z,7.80
2023-03-05T16:54:22.344Z,6.30
2023-03-05T16:57:54.674Z,10.70
2023-03-05T17:01:30.416Z,6.05
2023-03-05T17:05:03.729Z,7.60
2023-03-05T17:08:36.569Z,8.67
2023-03-05T17:12:10.921Z,8.15
2023-03-05T17:19:16.817Z,8.82
2023-03-05T17:22:49.178Z,9.03
2023-03-05T17:26:21.461Z,10.80
2023-03-05T17:29:53.238Z,6.03
2023-03-05T17:33:25.956Z,6.00
2023-03-05T17:36:58.181Z,7.10
2023-03-05T17:40:30.676Z,13.32
2023-03-05T17:44:03.277Z,7.27
2023-03-05T17:47:35.582Z,6.78
2023-03-05T17:51:08.910Z,9.20
2023-03-05T17:54:41.104Z,6.53
2023-03-05T17:58:13.124Z,8.73
2023-03-05T18:01:45.523Z,7.15
2023-03-05T18:05:20.199Z,7.40
2023-03-05T18:08:52.331Z,7.53
2023-03-05T18:12:25.231Z,8.90
2023-03-05T18:16:02.796Z,9.77
2023-03-05T18:19:35.906Z,9.47
2023-03-05T18:23:10.508Z,8.95
2023-03-05T18:26:44.883Z,10.02
2023-03-05T18:30:16.994Z,11.27
2023-03-05T18:33:51.097Z,11.57
2023-03-05T18:37:23.493Z,10.40
2023-03-05T18:40:56.694Z,9.00
2023-03-05T18:44:28.854Z,11.47
2023-03-05T18:48:01.145Z,8.48
2023-03-05T18:51:34.131Z,11.38
2023-03-05T18:55:06.662Z,10.80
2023-03-05T18:58:50.837Z,10.60
2023-03-05T19:02:26.794Z,8.80
2023-03-05T19:05:59.143Z,11.15
2023-03-05T19:09:58.156Z,12.03
2023-03-05T19:13:45.537Z,12.68
2023-03-05T19:17:18.438Z,10.00
2023-03-05T19:20:57.641Z,12.37
2023-03-05T19:24:32.021Z,9.27
2023-03-05T19:28:04.268Z,13.90
2023-03-05T19:31:37.370Z,12.97
2023-03-05T19:35:22.627Z,12.55
2023-03-05T19:38:56.009Z,11.65
2023-03-05T19:42:28.668Z,13.40
2023-03-05T19:46:05.685Z,12.87
2023-03-05T19:49:38.250Z,10.85
2023-03-05T19:53:11.079Z,12.65
2023-03-05T19:56:48.973Z,14.97
2023-03-05T20:00:22.579Z,10.85
2023-03-05T20:04:03.146Z,13.23
2023-03-05T20:07:35.759Z,10.57
2023-03-05T20:11:11.298Z,15.80
2023-03-05T20:14:51.176Z,11.57
2023-03-05T20:18:25.481Z,9.30
2023-03-05T20:21:58.415Z,9.73
2023-03-05T20:25:33.242Z,9.43
2023-03-05T20:29:05.479Z,10.48
2023-03-05T20:32:44.617Z,8.53
2023-03-05T20:36:19.714Z,9.63
2023-03-05T20:39:52.997Z,9.25
2023-03-05T20:43:28.612Z,11.00
2023-03-05T20:47:41.219Z,10.60
2023-03-05T20:51:16.762Z,7.45
2023-03-05T20:54:48.820Z,9.10
2023-03-05T20:58:21.224Z,9.83
2023-03-05T21:01:53.230Z,13.38
2023-03-05T21:05:27.433Z,11.40
2023-03-05T21:09:00.043Z,10.10
2023-03-05T21:12:33.825Z,13.35
2023-03-05T21:16:10.856Z,12.68
2023-03-05T21:19:42.926Z,14.63
2023-03-05T21:23:15.798Z,13.82
2023-03-05T21:26:48.323Z,11.18
2023-03-05T21:30:21.670Z,11.77
2023-03-05T21:33:53.738Z,11.83
2023-03-05T21:37:25.935Z,14.75
2023-03-05T21:40:58.798Z,20.30
2023-03-05T21:44:31.438Z,11.37
2023-03-05T21:48:04.142Z,9.18
2023-03-05T21:52:12.618Z,11.38
2023-03-05T21:56:19.641Z,14.67
2023-03-05T21:59:52.399Z,17.60
2023-03-05T22:03:25.276Z,11.27
2023-03-05T22:06:57.009Z,12.82
2023-03-05T22:10:29.085Z,13.40
2023-03-05T22:14:01.473Z,15.93
2023-03-05T22:17:33.556Z,17.85
2023-03-05T22:21:05.760Z,21.23
2023-03-05T22:24:38.044Z,12.75
2023-03-05T22:28:12.139Z,20.38
2023-03-05T22:31:44.878Z,10.67
2023-03-05T22:35:17.028Z,20.23
2023-03-05T22:38:48.939Z,17.35
2023-03-05T22:42:21.806Z,17.90
2023-03-05T22:45:53.653Z,20.37
2023-03-05T22:49:25.730Z,18.23
2023-03-05T22:52:57.528Z,13.48
2023-03-05T22:56:30.067Z,17.60
2023-03-05T23:00:02.464Z,14.23
2023-03-05T23:03:34.557Z,14.43
2023-03-05T23:07:06.888Z,19.27
2023-03-05T23:10:39.317Z,25.83
2023-03-05T23:14:11.768Z,27.92
2023-03-05T23:17:43.623Z,22.60
2023-03-05T23:21:18.877Z,13.20
2023-03-05T23:24:50.500Z,15.93
2023-03-05T23:28:23.154Z,11.85
2023-03-05T23:31:55.187Z,18.03
2023-03-05T23:35:29.522Z,19.23
2023-03-05T23:39:01.743Z,12.68
2023-03-05T23:42:34.131Z,14.43
2023-03-05T23:46:11.394Z,19.55
2023-03-05T23:49:43.392Z,20.45
2023-03-05T23:53:29.825Z,16.33
2023-03-05T23:57:01.974Z,21.60
